This is the latest recevied weather packets stored in our database for station/object KA3WVU. If no packets are shown the sender has not sent any weather packets the latest 1 day(s).
| Time | Temp. | Humidity | Pressure | Rain* | Wind** | Luminosity | Snow |
|---|---|---|---|---|---|---|---|
| 1778034358 | 16.11° C | 64% | 1009 hPa | 0 mm | - | 0 W/m² | - |
| 1778034055 | 16.11° C | 64% | 1009 hPa | 0 mm | - | 0 W/m² | - |
| 1778033753 | 16.11° C | 64% | 1008.9 hPa | 0 mm | - | 0 W/m² | - |
| 1778033450 | 16.67° C | 64% | 1008.8 hPa | 0 mm | - | 0 W/m² | - |
| 1778033147 | 16.11° C | 65% | 1008.9 hPa | 0 mm | - | 0 W/m² | - |
| 1778032542 | 16.11° C | 65% | 1008.6 hPa | 0 mm | - | 0 W/m² | - |
| 1778032238 | 16.11° C | 66% | 1008.8 hPa | 0 mm | - | 0 W/m² | - |
| 1778031936 | 16.11° C | 68% | 1008.9 hPa | 0 mm | - | 0 W/m² | - |
| 1778031632 | 16.11° C | 69% | 1008.8 hPa | 0 mm | - | 0 W/m² | - |
| 1778031330 | 16.11° C | 69% | 1008.8 hPa | 0 mm | - | 0 W/m² | - |
| 1778031026 | 16.11° C | 68% | 1009 hPa | 0 mm | - | 0 W/m² | - |
| 1778030722 | 16.11° C | 68% | 1009 hPa | 0 mm | - | 0 W/m² | - |
| 1778030420 | 16.11° C | 68% | 1009 hPa | 0 mm | - | 0 W/m² | - |
| 1778029814 | 16.11° C | 68% | 1008.8 hPa | 0 mm | - | 0 W/m² | - |
| 1778028907 | 16.67° C | 67% | 1009 hPa | 0 mm | - | 0 W/m² | - |
| 1778028602 | 16.67° C | 66% | 1008.9 hPa | 0 mm | - | 0 W/m² | - |
| 1778028300 | 16.67° C | 66% | 1008.8 hPa | 0 mm | - | 0 W/m² | - |
| 1778027692 | 16.67° C | 66% | 1008.8 hPa | 0 mm | - | 0 W/m² | - |
| 1778027085 | 17.22° C | 65% | 1008.8 hPa | 0 mm | - | 0 W/m² | - |
| 1778026780 | 17.22° C | 65% | 1008.8 hPa | 0 mm | - | 1 W/m² | - |
| 1778026175 | 17.22° C | 64% | 1008.9 hPa | 0 mm | - | 2 W/m² | - |
| 1778024056 | 17.78° C | 62% | 1008.6 hPa | 0 mm | - | 13 W/m² | - |
| 1778023753 | 17.78° C | 62% | 1008.8 hPa | 0 mm | - | 11 W/m² | - |
| 1778023451 | 17.78° C | 62% | 1008.8 hPa | 0 mm | - | 14 W/m² | - |
| 1778023147 | 18.33° C | 62% | 1008.6 hPa | 0 mm | - | 26 W/m² | - |
* Rain latest hour (hover to see other rain measurements)
** Current wind speed in m/s (hover to see current wind gust speed)